Terminal Aerodrome Forecast
Issued by NWS

Home | Current Version | Previous Version | Text Only | Print | Product List | Glossary On
Versions: 1 2 3 4 5 6 7 8 9 10 11 12 13
543
FTUS42 KMLB 292323
TAFISM
TAF
KISM 292323Z 3000/3024 07007KT P6SM FEW120 OVC250
     FM300200 00000KT P6SM BKN250
     FM301400 19004KT P6SM FEW030
     FM302000 16005KT P6SM VCTS SCT050CB=

USA.gov is the U.S. government's official web portal to all federal, state and local government web resources and services.